createdAt,value
2018-10-12T00:00:03.646Z,81.51
2018-10-12T00:01:03.568Z,81.89
2018-10-12T00:02:03.495Z,82.18
2018-10-12T00:03:03.416Z,82.65
2018-10-12T00:04:03.341Z,82.84
2018-10-12T00:05:03.514Z,82.75
2018-10-12T00:06:03.188Z,82.65
2018-10-12T00:07:03.112Z,82.08
2018-10-12T00:08:03.038Z,82.56
2018-10-12T00:09:02.960Z,83.27
2018-10-12T00:10:02.884Z,83.84
2018-10-12T00:11:02.808Z,84.13
2018-10-12T00:12:02.732Z,85.09
2018-10-12T00:13:02.656Z,85.28
2018-10-12T00:14:02.580Z,85.09
2018-10-12T00:15:02.505Z,85.18
2018-10-12T00:16:02.429Z,85.28
2018-10-12T00:17:02.352Z,84.70
2018-10-12T00:18:02.280Z,85.38
2018-10-12T00:19:02.202Z,85.28
2018-10-12T00:20:02.125Z,85.18
2018-10-12T00:21:02.048Z,85.18
2018-10-12T00:22:01.981Z,84.89
2018-10-12T00:23:01.897Z,84.89
2018-10-12T00:24:01.822Z,84.99
2018-10-12T00:25:01.746Z,85.28
2018-10-12T00:26:01.673Z,84.70
2018-10-12T00:27:01.597Z,84.89
2018-10-12T00:28:01.518Z,84.52
2018-10-12T00:29:01.442Z,84.23
2018-10-12T00:30:01.365Z,85.38
2018-10-12T00:31:01.291Z,85.18
2018-10-12T00:32:01.215Z,85.85
2018-10-12T00:33:01.136Z,86.14
2018-10-12T00:34:01.062Z,86.33
2018-10-12T00:35:00.986Z,86.23
2018-10-12T00:36:00.909Z,86.61
2018-10-12T00:37:00.836Z,86.33
2018-10-12T00:38:00.860Z,87.95
2018-10-12T00:39:00.683Z,86.61
2018-10-12T00:40:00.605Z,88.15
2018-10-12T00:41:00.528Z,87.19
2018-10-12T00:42:00.452Z,87.48
2018-10-12T00:43:00.381Z,87.52
2018-10-12T00:44:00.302Z,87.95
2018-10-12T00:45:00.225Z,87.00
2018-10-12T00:46:00.149Z,87.00
2018-10-12T00:47:00.075Z,87.38
2018-10-12T00:47:59.997Z,87.19
2018-10-12T00:48:59.921Z,86.80
2018-10-12T00:49:59.849Z,87.66
2018-10-12T00:50:59.770Z,87.19
2018-10-12T00:52:59.616Z,87.38
2018-10-12T00:53:59.541Z,88.15
2018-10-12T00:54:59.466Z,87.48
2018-10-12T00:55:59.390Z,88.38
2018-10-12T00:56:59.315Z,88.19
2018-10-12T00:57:59.238Z,88.38
2018-10-12T00:58:59.166Z,87.62
2018-10-12T00:59:59.093Z,88.00
2018-10-12T01:00:59.014Z,87.33
2018-10-12T01:01:58.939Z,87.33
2018-10-12T01:02:58.865Z,87.43
2018-10-12T01:03:58.791Z,85.66
2018-10-12T01:04:58.715Z,85.47
2018-10-12T01:05:58.642Z,84.99
2018-10-12T01:06:58.567Z,84.61
2018-10-12T01:07:58.491Z,84.13
2018-10-12T01:08:58.417Z,83.84
2018-10-12T01:09:58.345Z,83.94
2018-10-12T01:10:58.268Z,84.89
2018-10-12T01:11:58.195Z,84.70
2018-10-12T01:12:58.120Z,88.86
2018-10-12T01:13:58.096Z,92.25
2018-10-12T01:14:57.970Z,92.30
2018-10-12T01:15:57.897Z,92.40
2018-10-12T01:16:57.821Z,93.69
2018-10-12T01:17:57.748Z,94.45
2018-10-12T01:18:57.674Z,94.35
2018-10-12T01:19:57.600Z,93.88
2018-10-12T01:20:57.526Z,93.69
2018-10-12T01:21:57.453Z,93.83
2018-10-12T01:22:57.379Z,93.83
2018-10-12T01:23:57.406Z,95.17
2018-10-12T01:24:57.231Z,93.54
2018-10-12T01:25:57.157Z,92.30
2018-10-12T01:26:57.084Z,92.21
2018-10-12T01:27:57.009Z,92.30
2018-10-12T01:28:56.934Z,92.21
2018-10-12T01:29:56.863Z,93.26
2018-10-12T01:30:56.790Z,92.40
2018-10-12T01:31:56.718Z,92.68
2018-10-12T01:32:59.464Z,93.93
2018-10-12T01:33:56.570Z,94.69
2018-10-12T01:34:56.544Z,94.40
2018-10-12T01:35:56.421Z,94.40
2018-10-12T01:36:56.347Z,94.40
2018-10-12T01:37:56.275Z,93.83
2018-10-12T01:38:56.201Z,93.54
2018-10-12T01:39:56.127Z,92.73
2018-10-12T01:40:56.052Z,92.78
2018-10-12T01:41:55.979Z,93.12
2018-10-12T01:42:55.907Z,91.68
2018-10-12T01:43:55.835Z,91.97
2018-10-12T01:44:55.860Z,90.91
2018-10-12T01:45:55.690Z,89.00
2018-10-12T01:46:55.613Z,90.48
2018-10-12T01:47:55.541Z,89.62
2018-10-12T01:48:55.468Z,89.05
2018-10-12T01:49:55.443Z,88.86
2018-10-12T01:50:55.319Z,87.90
2018-10-12T01:51:55.246Z,90.24
2018-10-12T01:52:55.171Z,91.58
2018-10-12T01:53:55.099Z,90.10
2018-10-12T01:54:55.025Z,89.62
2018-10-12T01:55:54.954Z,88.76
2018-10-12T01:56:54.878Z,88.19
2018-10-12T01:57:54.804Z,88.76
2018-10-12T01:58:54.731Z,88.00
2018-10-12T01:59:54.657Z,86.23
2018-10-12T02:00:54.585Z,86.14
2018-10-12T02:01:54.510Z,85.09
2018-10-12T02:02:54.438Z,85.57
2018-10-12T02:03:54.363Z,85.75
2018-10-12T02:04:54.289Z,85.66
2018-10-12T02:05:54.216Z,86.04
2018-10-12T02:06:54.141Z,84.89
2018-10-12T02:07:54.070Z,84.52
2018-10-12T02:08:53.995Z,87.19
2018-10-12T02:09:53.955Z,85.57
2018-10-12T02:10:53.848Z,85.47
2018-10-12T02:11:53.773Z,85.28
2018-10-12T02:12:53.701Z,84.52
2018-10-12T02:13:53.626Z,85.28
2018-10-12T02:14:53.552Z,83.08
2018-10-12T02:15:53.479Z,83.65
2018-10-12T02:16:53.408Z,83.75
2018-10-12T02:17:53.330Z,83.56
2018-10-12T02:18:53.257Z,86.08
2018-10-12T02:19:53.185Z,85.80
2018-10-12T02:20:53.109Z,88.00
2018-10-12T02:21:53.036Z,92.35
2018-10-12T02:22:52.962Z,91.39
2018-10-12T02:23:52.889Z,91.49
2018-10-12T02:24:52.814Z,92.54
2018-10-12T02:25:52.742Z,91.58
2018-10-12T02:26:52.667Z,92.16
2018-10-12T02:27:52.595Z,94.60
2018-10-12T02:28:52.521Z,94.35
2018-10-12T02:29:52.449Z,95.22
2018-10-12T02:30:52.373Z,95.60
2018-10-12T02:31:52.299Z,97.52
2018-10-12T02:32:52.235Z,97.23
2018-10-12T02:33:52.153Z,97.85
2018-10-12T02:34:52.079Z,99.39
2018-10-12T02:35:52.028Z,99.39
2018-10-12T02:36:51.933Z,98.81
2018-10-12T02:37:51.864Z,98.62
2018-10-12T02:38:51.784Z,98.52
2018-10-12T02:39:51.712Z,99.58
2018-10-12T02:40:51.638Z,98.43
2018-10-12T02:41:51.563Z,98.43
2018-10-12T02:42:51.491Z,98.81
2018-10-12T02:43:51.417Z,98.52
2018-10-12T02:44:51.346Z,98.72
2018-10-12T02:45:51.272Z,98.62
2018-10-12T02:46:51.197Z,98.33
2018-10-12T02:47:51.126Z,98.81
2018-10-12T02:48:51.051Z,99.29
2018-10-12T02:49:51.228Z,98.81
2018-10-12T02:50:50.905Z,98.72
2018-10-12T02:51:50.832Z,98.43
2018-10-12T02:52:50.760Z,99.05
2018-10-12T02:53:50.686Z,97.52
2018-10-12T02:54:50.615Z,98.72
2018-10-12T02:55:50.542Z,98.62
2018-10-12T02:56:50.468Z,97.80
2018-10-12T02:57:50.394Z,98.57
2018-10-12T02:58:50.321Z,98.19
2018-10-12T02:59:50.500Z,99.15
2018-10-12T03:00:50.176Z,99.05
2018-10-12T03:01:50.105Z,99.05
2018-10-12T03:02:50.033Z,99.29
2018-10-12T03:03:49.958Z,99.99
2018-10-12T03:04:49.883Z,99.05
2018-10-12T03:05:50.061Z,99.24
2018-10-12T03:06:49.739Z,98.81
2018-10-12T03:07:49.669Z,99.72
2018-10-12T03:08:49.592Z,99.99
2018-10-12T03:09:49.519Z,99.99
2018-10-12T03:10:49.447Z,99.99
2018-10-12T03:11:49.374Z,99.99
2018-10-12T03:12:49.301Z,99.99
2018-10-12T03:13:49.228Z,99.99
2018-10-12T03:14:49.156Z,99.99
2018-10-12T03:15:49.087Z,99.99
2018-10-12T03:16:49.011Z,99.99
2018-10-12T03:17:48.935Z,99.99
2018-10-12T03:18:48.863Z,99.99
2018-10-12T03:19:48.795Z,99.99
2018-10-12T03:20:48.719Z,99.87
2018-10-12T03:21:48.645Z,99.99
2018-10-12T03:22:48.824Z,99.99
2018-10-12T03:23:48.500Z,99.99
2018-10-12T03:24:48.426Z,99.99
2018-10-12T03:25:48.353Z,99.96
2018-10-12T03:26:48.281Z,99.99
2018-10-12T03:27:48.210Z,99.99
2018-10-12T03:28:48.137Z,99.99
2018-10-12T03:29:48.064Z,99.24
2018-10-12T03:30:47.991Z,99.99
2018-10-12T03:31:47.918Z,99.43
2018-10-12T03:32:47.848Z,98.96
2018-10-12T03:33:47.772Z,99.24
2018-10-12T03:34:47.703Z,99.24
2018-10-12T03:35:47.629Z,98.38
2018-10-12T03:36:47.554Z,98.28
2018-10-12T03:37:47.481Z,97.18
2018-10-12T03:38:47.426Z,97.18
2018-10-12T03:39:47.342Z,97.09
2018-10-12T03:40:47.263Z,96.51
2018-10-12T03:41:47.190Z,96.42
2018-10-12T03:42:47.118Z,96.03
2018-10-12T03:43:47.051Z,95.84
2018-10-12T03:44:46.972Z,96.18
2018-10-12T03:45:46.903Z,96.13
2018-10-12T03:46:46.830Z,96.42
2018-10-12T03:47:46.754Z,96.51
2018-10-12T03:48:46.681Z,96.03
2018-10-12T03:49:46.608Z,95.51
2018-10-12T03:50:46.537Z,95.03
2018-10-12T03:51:46.491Z,96.08
2018-10-12T03:52:46.388Z,93.98
2018-10-12T03:53:46.321Z,93.79
2018-10-12T03:54:46.243Z,93.07
2018-10-12T03:55:46.171Z,93.21
2018-10-12T03:56:46.096Z,92.97
2018-10-12T03:57:46.023Z,93.35
2018-10-12T03:58:45.959Z,92.97
2018-10-12T03:59:45.877Z,92.02
2018-10-12T04:00:45.803Z,90.39
2018-10-12T04:01:45.728Z,91.35
2018-10-12T04:02:45.724Z,90.73
2018-10-12T04:03:45.582Z,89.96
2018-10-12T04:04:45.510Z,90.34
2018-10-12T04:05:45.436Z,88.91
2018-10-12T04:06:45.363Z,86.90
2018-10-12T04:07:45.291Z,87.38
2018-10-12T04:08:45.222Z,88.05
2018-10-12T04:09:45.147Z,87.29
2018-10-12T04:10:45.073Z,87.29
2018-10-12T04:11:44.998Z,87.76
2018-10-12T04:12:44.926Z,87.43
2018-10-12T04:13:44.848Z,87.34
2018-10-12T04:14:44.775Z,86.10
2018-10-12T04:15:44.700Z,85.71
2018-10-12T04:16:44.630Z,85.14
2018-10-12T04:17:44.552Z,86.19
2018-10-12T04:18:44.480Z,84.09
2018-10-12T04:19:44.405Z,83.80
2018-10-12T04:20:44.332Z,85.42
2018-10-12T04:21:44.257Z,85.33
2018-10-12T04:22:44.184Z,84.28
2018-10-12T04:23:44.111Z,83.61
2018-10-12T04:24:44.037Z,84.95
2018-10-12T04:25:43.962Z,84.95
2018-10-12T04:26:43.888Z,84.56
2018-10-12T04:27:43.816Z,84.76
2018-10-12T04:28:43.740Z,83.04
2018-10-12T04:29:43.669Z,84.66
2018-10-12T04:30:43.842Z,86.57
2018-10-12T04:31:43.519Z,84.85
2018-10-12T04:32:43.444Z,83.61
2018-10-12T04:33:43.372Z,83.42
2018-10-12T04:34:43.300Z,83.13
2018-10-12T04:35:43.224Z,85.33
2018-10-12T04:36:43.149Z,85.14
2018-10-12T04:37:43.074Z,82.46
2018-10-12T04:38:43.002Z,81.99
2018-10-12T04:39:42.927Z,82.14
2018-10-12T04:40:42.852Z,80.61
2018-10-12T04:41:42.779Z,82.14
2018-10-12T04:42:42.704Z,83.00
2018-10-12T04:43:42.630Z,80.99
2018-10-12T04:44:42.556Z,83.57
2018-10-12T04:45:42.482Z,84.14
2018-10-12T04:46:42.407Z,81.09
2018-10-12T04:47:42.335Z,77.84
2018-10-12T04:48:42.297Z,79.27
2018-10-12T04:49:42.191Z,78.60
2018-10-12T04:50:42.112Z,78.22
2018-10-12T04:51:42.037Z,78.51
2018-10-12T04:52:41.962Z,78.89
2018-10-12T04:53:41.897Z,79.27
2018-10-12T04:54:41.814Z,78.31
2018-10-12T04:55:41.740Z,78.13
2018-10-12T04:56:41.664Z,78.41
2018-10-12T04:57:41.602Z,79.17
2018-10-12T04:58:41.516Z,79.65
2018-10-12T04:59:41.444Z,80.90
2018-10-12T05:00:41.455Z,80.70
2018-10-12T05:01:41.393Z,80.51
2018-10-12T05:02:41.218Z,78.89
2018-10-12T05:03:41.145Z,80.38
2018-10-12T05:04:41.071Z,79.61
2018-10-12T05:05:40.997Z,77.42
2018-10-12T05:06:41.172Z,73.03
2018-10-12T05:07:40.970Z,73.79
2018-10-12T05:08:40.772Z,74.74
2018-10-12T05:09:40.697Z,74.84
2018-10-12T05:10:40.625Z,73.32
2018-10-12T05:11:40.551Z,75.42
2018-10-12T05:12:40.474Z,74.55
2018-10-12T05:13:40.405Z,72.83
2018-10-12T05:14:40.327Z,68.00
2018-10-12T05:15:40.252Z,70.39
2018-10-12T05:16:40.176Z,71.72
2018-10-12T05:17:40.102Z,72.20
2018-10-12T05:18:40.033Z,72.87
2018-10-12T05:19:39.953Z,74.59
2018-10-12T05:20:39.877Z,71.92
2018-10-12T05:21:39.803Z,74.02
2018-10-12T05:22:39.730Z,74.02
2018-10-12T05:23:39.658Z,73.35
2018-10-12T05:24:39.580Z,71.82
2018-10-12T05:25:39.510Z,69.53
2018-10-12T05:26:39.432Z,71.92
2018-10-12T05:27:39.359Z,73.07
2018-10-12T05:28:39.286Z,71.82
2018-10-12T05:29:39.208Z,70.67
2018-10-12T05:30:39.135Z,70.01
2018-10-12T05:31:39.060Z,68.38
2018-10-12T05:32:38.986Z,69.91
2018-10-12T05:33:38.911Z,70.67
2018-10-12T05:34:38.836Z,68.67
2018-10-12T05:35:38.762Z,68.76
2018-10-12T05:36:38.787Z,68.57
2018-10-12T05:37:38.612Z,70.29
2018-10-12T05:38:38.539Z,72.01
2018-10-12T05:39:38.465Z,71.82
2018-10-12T05:40:38.388Z,72.87
2018-10-12T05:41:38.313Z,69.34
2018-10-12T05:42:38.290Z,68.67
2018-10-12T05:43:38.240Z,66.47
2018-10-12T05:44:38.091Z,67.91
2018-10-12T05:45:38.016Z,68.57
2018-10-12T05:46:37.942Z,69.72
2018-10-12T05:47:37.870Z,68.48
2018-10-12T05:48:37.811Z,70.01
2018-10-12T05:49:37.719Z,69.53
2018-10-12T05:50:37.644Z,69.82
2018-10-12T05:51:37.568Z,70.29
2018-10-12T05:52:37.493Z,70.48
2018-10-12T05:53:37.419Z,71.15
2018-10-12T05:54:37.346Z,70.39
2018-10-12T05:55:37.312Z,71.06
2018-10-12T05:56:37.195Z,71.34
2018-10-12T05:57:37.120Z,71.15
2018-10-12T05:58:37.050Z,71.28
2018-10-12T05:59:36.972Z,72.20
2018-10-12T06:00:36.898Z,71.53
2018-10-12T06:01:36.826Z,71.57
2018-10-12T06:02:36.751Z,71.76
2018-10-12T06:03:36.674Z,69.09
2018-10-12T06:04:36.601Z,69.37
2018-10-12T06:05:36.526Z,69.47
2018-10-12T06:06:36.452Z,70.81
2018-10-12T06:07:36.379Z,73.48
2018-10-12T06:08:36.353Z,73.48
2018-10-12T06:09:36.269Z,73.29
2018-10-12T06:10:36.155Z,73.99
2018-10-12T06:11:36.084Z,74.57
2018-10-12T06:12:36.007Z,76.57
2018-10-12T06:13:35.938Z,77.34
2018-10-12T06:14:35.859Z,77.92
2018-10-12T06:15:35.868Z,77.15
2018-10-12T06:16:35.710Z,77.53
2018-10-12T06:17:35.639Z,76.29
2018-10-12T06:18:35.566Z,76.29
2018-10-12T06:19:35.490Z,75.62
2018-10-12T06:20:35.417Z,75.91
2018-10-12T06:21:35.402Z,75.62
2018-10-12T06:22:35.269Z,74.85
2018-10-12T06:23:35.196Z,74.51
2018-10-12T06:24:35.120Z,74.80
2018-10-12T06:25:35.049Z,75.09
2018-10-12T06:26:34.976Z,75.47
2018-10-12T06:27:34.900Z,76.04
2018-10-12T06:28:34.827Z,76.42
2018-10-12T06:29:34.753Z,76.81
2018-10-12T06:30:34.683Z,74.90
2018-10-12T06:31:34.607Z,74.32
2018-10-12T06:32:34.533Z,75.76
2018-10-12T06:33:34.461Z,78.19
2018-10-12T06:34:34.387Z,78.47
2018-10-12T06:35:34.315Z,78.38
2018-10-12T06:36:34.241Z,77.99
2018-10-12T06:37:34.167Z,78.28
2018-10-12T06:38:34.096Z,79.05
2018-10-12T06:39:34.022Z,79.91
2018-10-12T06:40:33.951Z,81.15
2018-10-12T06:41:34.049Z,81.44
2018-10-12T06:42:33.802Z,82.68
2018-10-12T06:43:33.729Z,82.68
2018-10-12T06:44:33.656Z,82.59
2018-10-12T06:45:33.584Z,78.86
2018-10-12T06:46:33.576Z,78.95
2018-10-12T06:47:33.439Z,78.19
2018-10-12T06:48:33.365Z,77.80
2018-10-12T06:49:33.293Z,76.27
2018-10-12T06:50:33.221Z,78.38
2018-10-12T06:51:33.145Z,78.09
2018-10-12T06:52:33.072Z,76.75
2018-10-12T06:53:32.999Z,77.04
2018-10-12T06:54:32.931Z,76.46
2018-10-12T06:55:32.854Z,75.79
2018-10-12T06:56:32.781Z,75.12
2018-10-12T06:57:32.709Z,74.65
2018-10-12T06:58:32.687Z,73.30
2018-10-12T06:59:32.561Z,73.27
2018-10-12T07:00:32.488Z,74.22
2018-10-12T07:01:32.415Z,74.32
2018-10-12T07:02:32.342Z,73.84
2018-10-12T07:03:32.269Z,75.09
2018-10-12T07:04:32.195Z,74.61
2018-10-12T07:05:32.148Z,72.98
2018-10-12T07:06:32.105Z,72.31
2018-10-12T07:07:31.977Z,73.27
2018-10-12T07:08:31.903Z,73.36
2018-10-12T07:09:31.831Z,73.46
2018-10-12T07:10:31.758Z,72.98
2018-10-12T07:11:31.684Z,73.27
2018-10-12T07:12:31.610Z,73.36
2018-10-12T07:13:31.539Z,73.84
2018-10-12T07:14:31.465Z,74.61
2018-10-12T07:15:31.391Z,74.41
2018-10-12T07:16:31.317Z,74.13
2018-10-12T07:17:31.249Z,74.22
2018-10-12T07:18:31.172Z,73.46
2018-10-12T07:19:31.159Z,74.70
2018-10-12T07:20:31.028Z,75.76
2018-10-12T07:21:30.951Z,75.79
2018-10-12T07:22:30.880Z,76.37
2018-10-12T07:23:30.807Z,76.84
2018-10-12T07:24:30.734Z,77.51
2018-10-12T07:25:30.661Z,77.33
2018-10-12T07:26:30.588Z,76.65
2018-10-12T07:27:30.514Z,75.89
2018-10-12T07:28:30.440Z,75.79
2018-10-12T07:29:30.368Z,78.13
2018-10-12T07:30:30.293Z,79.66
2018-10-12T07:31:30.283Z,81.38
2018-10-12T07:32:30.149Z,82.43
2018-10-12T07:33:30.076Z,84.01
2018-10-12T07:34:30.003Z,82.19
2018-10-12T07:35:29.931Z,82.38
2018-10-12T07:36:29.886Z,81.62
2018-10-12T07:37:29.792Z,81.52
2018-10-12T07:38:29.713Z,81.13
2018-10-12T07:39:29.640Z,82.57
2018-10-12T07:40:29.567Z,86.50
2018-10-12T07:41:29.496Z,86.69
2018-10-12T07:42:29.509Z,87.21
2018-10-12T07:43:29.350Z,90.00
2018-10-12T07:44:29.277Z,87.31
2018-10-12T07:45:29.205Z,86.74
2018-10-12T07:46:29.133Z,88.46
2018-10-12T07:47:29.144Z,89.42
2018-10-12T07:48:28.991Z,89.04
2018-10-12T07:49:28.915Z,88.89
2018-10-12T07:50:28.844Z,87.16
2018-10-12T07:51:28.770Z,87.12
2018-10-12T07:52:28.699Z,88.27
2018-10-12T07:53:28.627Z,87.26
2018-10-12T07:54:28.554Z,85.39
2018-10-12T07:55:28.482Z,85.39
2018-10-12T07:56:28.409Z,88.84
2018-10-12T07:57:28.337Z,88.84
2018-10-12T07:58:28.300Z,89.47
2018-10-12T07:59:28.193Z,89.94
2018-10-12T08:00:28.152Z,91.19
2018-10-12T08:01:28.049Z,93.49
2018-10-12T08:02:28.366Z,94.79
2018-10-12T08:03:27.905Z,94.98
2018-10-12T08:04:27.833Z,95.75
2018-10-12T08:06:15.325Z,97.09
2018-10-12T08:07:15.180Z,96.94
2018-10-12T08:08:15.108Z,96.85
2018-10-12T08:09:15.035Z,97.71
2018-10-12T08:10:14.964Z,95.60
2018-10-12T08:11:14.892Z,98.77
2018-10-12T08:12:14.820Z,95.41
2018-10-12T08:13:14.775Z,96.94
2018-10-12T08:14:14.723Z,95.50
2018-10-12T08:15:15.415Z,94.07
2018-10-12T08:16:14.538Z,94.93
2018-10-12T08:17:14.461Z,96.56
2018-10-12T08:18:14.389Z,97.24
2018-10-12T08:19:14.320Z,97.42
2018-10-12T08:20:14.263Z,95.89
2018-10-12T08:21:14.174Z,96.66
2018-10-12T08:22:14.104Z,97.81
2018-10-12T08:23:14.031Z,98.77
2018-10-12T08:24:13.958Z,94.16
2018-10-12T08:25:13.888Z,96.75
2018-10-12T08:26:13.816Z,96.70
2018-10-12T08:27:13.745Z,96.51
2018-10-12T08:28:13.673Z,97.96
2018-10-12T08:29:13.601Z,98.53
2018-10-12T08:30:13.530Z,98.82
2018-10-12T08:31:13.459Z,98.91
2018-10-12T08:32:13.387Z,99.01
2018-10-12T08:33:13.342Z,97.96
2018-10-12T08:34:13.246Z,97.71
2018-10-12T08:35:13.378Z,98.86
2018-10-12T08:36:13.180Z,99.99
2018-10-12T08:37:13.306Z,99.99
2018-10-12T08:38:12.963Z,99.99
2018-10-12T08:39:12.916Z,99.99
2018-10-12T08:40:12.845Z,99.78
2018-10-12T08:41:12.744Z,99.01
2018-10-12T08:42:12.708Z,99.99
2018-10-12T08:43:12.683Z,99.99
2018-10-12T08:44:12.761Z,99.99
2018-10-12T08:46:12.391Z,99.99
2018-10-12T08:47:12.347Z,99.99
2018-10-12T08:49:12.404Z,99.99
2018-10-12T08:50:12.139Z,99.99
2018-10-12T08:52:11.994Z,99.99
2018-10-12T08:54:11.851Z,99.99
2018-10-12T08:55:11.780Z,99.99
2018-10-12T08:57:11.637Z,99.99
2018-10-12T08:58:11.767Z,99.99
2018-10-12T09:00:11.623Z,99.69
2018-10-12T09:02:12.090Z,99.84
2018-10-12T09:04:11.343Z,99.84
2018-10-12T09:05:11.676Z,98.87
2018-10-12T09:06:11.197Z,99.26
2018-10-12T09:09:10.805Z,99.26
2018-10-12T09:11:10.643Z,99.44
2018-10-12T09:12:10.774Z,99.54
2018-10-12T09:13:10.503Z,99.35
2018-10-12T09:15:10.816Z,98.97
2018-10-12T09:16:11.005Z,99.11
2018-10-12T09:17:10.220Z,99.11
2018-10-12T09:18:10.551Z,99.21
2018-10-12T09:19:10.280Z,99.21
2018-10-12T09:20:10.268Z,98.92
2018-10-12T09:25:09.854Z,98.10
2018-10-12T09:26:09.580Z,98.49
2018-10-12T09:27:10.042Z,98.29
2018-10-12T09:30:09.322Z,98.00
2018-10-12T09:31:09.435Z,99.26
2018-10-12T09:32:09.159Z,98.00
2018-10-12T09:33:09.090Z,97.91
2018-10-12T09:34:09.217Z,97.33
2018-10-12T09:36:08.877Z,96.94
2018-10-12T09:37:08.873Z,96.66
2018-10-12T09:38:08.708Z,96.75
2018-10-12T09:39:08.665Z,96.37
2018-10-12T09:40:08.594Z,96.27
2018-10-12T09:42:08.427Z,97.38
2018-10-12T09:43:08.436Z,96.80
2018-10-12T09:44:08.312Z,96.99
2018-10-12T09:46:08.173Z,95.93
2018-10-12T09:47:08.101Z,96.03
2018-10-12T09:49:07.964Z,95.26
2018-10-12T09:50:07.935Z,95.16
2018-10-12T09:51:07.822Z,94.78
2018-10-12T09:52:07.753Z,95.16
2018-10-12T09:53:07.653Z,95.06
2018-10-12T09:54:07.611Z,94.63
2018-10-12T09:55:07.512Z,94.15
2018-10-12T09:56:07.469Z,94.43
2018-10-12T09:57:07.402Z,94.63
2018-10-12T09:58:07.303Z,93.76
2018-10-12T09:59:07.258Z,93.76
2018-10-12T10:00:07.651Z,94.05
2018-10-12T10:01:07.322Z,94.05
2018-10-12T10:02:07.085Z,92.99
2018-10-12T10:03:07.181Z,92.41
2018-10-12T10:04:06.906Z,92.22
2018-10-12T10:05:07.244Z,93.66
2018-10-12T10:06:06.768Z,92.70
2018-10-12T10:07:06.700Z,92.41
2018-10-12T10:08:06.713Z,92.80
2018-10-12T10:09:06.623Z,90.29
2018-10-12T10:10:06.486Z,91.16
2018-10-12T10:11:06.390Z,91.97
2018-10-12T10:12:06.346Z,91.97
2018-10-12T10:13:06.276Z,90.23
2018-10-12T10:14:06.180Z,90.05
2018-10-12T10:15:06.341Z,91.78
2018-10-12T10:16:06.065Z,91.01
2018-10-12T10:17:05.997Z,90.81
2018-10-12T10:18:05.907Z,90.91
2018-10-12T10:20:05.790Z,92.74
2018-10-12T10:21:05.692Z,91.39
2018-10-12T10:22:05.622Z,89.56
2018-10-12T10:23:05.552Z,88.31
2018-10-12T10:24:05.483Z,87.73
2018-10-12T10:25:05.477Z,87.19
2018-10-12T10:26:05.343Z,87.58
2018-10-12T10:27:05.506Z,86.32
2018-10-12T10:28:05.235Z,86.52
2018-10-12T10:29:05.189Z,86.61
2018-10-12T10:30:05.324Z,87.87
2018-10-12T10:31:04.995Z,86.22
2018-10-12T10:32:04.935Z,89.22
2018-10-12T10:33:04.856Z,89.31
2018-10-12T10:34:04.786Z,87.81
2018-10-12T10:35:04.718Z,86.65
2018-10-12T10:36:04.678Z,86.42
2018-10-12T10:37:04.576Z,85.69
2018-10-12T10:38:04.509Z,83.75
2018-10-12T10:39:04.465Z,84.24
2018-10-12T10:40:04.369Z,82.98
2018-10-12T10:41:04.300Z,83.56
2018-10-12T10:42:04.231Z,85.49
2018-10-12T10:43:04.161Z,85.11
2018-10-12T10:44:04.091Z,83.75
2018-10-12T10:45:04.022Z,85.49
2018-10-12T10:46:03.953Z,81.15
2018-10-12T10:47:03.885Z,80.47
2018-10-12T10:48:03.815Z,82.40
2018-10-12T10:49:03.746Z,80.61
2018-10-12T10:50:03.676Z,81.29
2018-10-12T10:51:03.605Z,80.51
2018-10-12T10:52:03.537Z,80.61
2018-10-12T10:53:03.467Z,79.45
2018-10-12T10:54:03.401Z,79.78
2018-10-12T10:55:03.330Z,78.81
2018-10-12T10:56:03.262Z,78.81
2018-10-12T10:57:03.192Z,77.59
2018-10-12T10:58:03.124Z,76.72
2018-10-12T10:59:03.055Z,76.33
2018-10-12T11:00:03.036Z,75.31
2018-10-12T11:01:03.072Z,74.53
2018-10-12T11:02:02.847Z,73.41
2018-10-12T11:03:02.807Z,72.63
2018-10-12T11:04:02.749Z,73.31
2018-10-12T11:05:02.641Z,72.83
2018-10-12T11:06:02.574Z,71.04
2018-10-12T11:07:02.505Z,72.21
2018-10-12T11:08:02.436Z,72.34
2018-10-12T11:09:02.395Z,72.28
2018-10-12T11:10:02.401Z,69.50
2018-10-12T11:11:04.916Z,68.05
2018-10-12T11:12:02.165Z,67.60
2018-10-12T11:13:02.229Z,66.99
2018-10-12T11:14:02.031Z,64.30
2018-10-12T11:15:01.972Z,63.55
2018-10-12T11:16:01.949Z,63.97
2018-10-12T11:17:01.829Z,61.54
2018-10-12T11:18:01.762Z,62.97
2018-10-12T11:19:01.699Z,62.10
2018-10-12T11:20:01.629Z,63.59
2018-10-12T11:21:01.563Z,64.95
2018-10-12T11:22:01.502Z,64.75
2018-10-12T11:23:01.432Z,65.79
2018-10-12T11:24:01.364Z,66.27
2018-10-12T11:25:01.300Z,67.18
2018-10-12T11:26:01.233Z,67.60
2018-10-12T11:27:01.167Z,66.69
2018-10-12T11:28:01.101Z,66.44
2018-10-12T11:29:01.038Z,65.95
2018-10-12T11:30:00.968Z,65.66
2018-10-12T11:31:00.903Z,66.08
2018-10-12T11:32:00.839Z,64.82
2018-10-12T11:33:00.796Z,65.72
2018-10-12T11:34:00.705Z,64.56
2018-10-12T11:35:00.641Z,63.68
2018-10-12T11:36:00.573Z,63.01
2018-10-12T11:37:00.509Z,62.16
2018-10-12T11:38:00.444Z,62.68
2018-10-12T11:39:00.380Z,61.12
2018-10-12T11:40:00.315Z,62.35
2018-10-12T11:41:00.250Z,61.11
2018-10-12T11:42:00.186Z,62.25
2018-10-12T11:43:00.121Z,58.67
2018-10-12T11:44:00.057Z,57.85
2018-10-12T11:45:00.015Z,54.70
2018-10-12T11:45:59.929Z,55.68
2018-10-12T11:46:59.871Z,55.51
2018-10-12T11:47:59.977Z,54.85
2018-10-12T11:48:59.741Z,56.89
2018-10-12T11:49:59.679Z,56.30
2018-10-12T11:50:59.619Z,56.95
2018-10-12T11:51:59.561Z,55.12
2018-10-12T11:52:59.493Z,54.07
2018-10-12T11:53:59.432Z,53.22
2018-10-12T11:54:59.371Z,53.07
2018-10-12T11:55:59.311Z,53.83
2018-10-12T11:56:59.251Z,53.97
2018-10-12T11:57:59.187Z,53.22
2018-10-12T11:58:59.157Z,52.63
2018-10-12T11:59:59.067Z,53.89
2018-10-12T12:00:59.045Z,56.00
2018-10-12T12:01:58.949Z,54.07
2018-10-12T12:02:58.888Z,53.86
2018-10-12T12:03:58.829Z,53.03
2018-10-12T12:04:58.767Z,50.98
2018-10-12T12:05:58.707Z,52.41
2018-10-12T12:06:58.648Z,53.50
2018-10-12T12:07:58.588Z,54.97
2018-10-12T12:08:58.528Z,58.47
2018-10-12T12:09:58.469Z,52.66
2018-10-12T12:10:58.410Z,51.78
2018-10-12T12:11:58.350Z,51.51
2018-10-12T12:12:58.291Z,51.07
2018-10-12T12:13:58.333Z,51.20
2018-10-12T12:14:58.174Z,50.49
2018-10-12T12:15:58.114Z,51.27
2018-10-12T12:16:58.059Z,51.15
2018-10-12T12:17:57.998Z,51.43
2018-10-12T12:18:57.939Z,52.70
2018-10-12T12:19:57.880Z,53.95
2018-10-12T12:20:57.825Z,52.68
2018-10-12T12:21:57.863Z,53.92
2018-10-12T12:22:57.705Z,55.50
2018-10-12T12:23:57.644Z,57.32
2018-10-12T12:24:57.585Z,57.97
2018-10-12T12:25:57.526Z,59.57
2018-10-12T12:26:57.467Z,59.38
2018-10-12T12:27:57.407Z,60.12
2018-10-12T12:28:57.346Z,61.09
2018-10-12T12:29:57.285Z,62.35
2018-10-12T12:30:57.225Z,62.23
2018-10-12T12:31:57.163Z,62.32
2018-10-12T12:32:57.101Z,63.56
2018-10-12T12:33:57.042Z,62.59
2018-10-12T12:34:57.041Z,62.78
2018-10-12T12:35:57.328Z,63.07
2018-10-12T12:36:56.852Z,62.98
2018-10-12T12:37:56.791Z,63.95
2018-10-12T12:38:56.729Z,63.26
2018-10-12T12:39:56.665Z,64.04
2018-10-12T12:40:59.634Z,63.62
2018-10-12T12:41:56.538Z,64.88
2018-10-12T12:42:56.474Z,64.56
2018-10-12T12:43:56.410Z,64.59
2018-10-12T12:44:56.345Z,65.24
2018-10-12T12:45:56.282Z,64.69
2018-10-12T12:46:56.218Z,64.78
2018-10-12T12:47:56.340Z,64.01
2018-10-12T12:48:56.638Z,64.69
2018-10-12T12:49:56.023Z,64.33
2018-10-12T12:50:55.959Z,63.95
2018-10-12T12:51:55.897Z,62.04
2018-10-12T12:52:55.831Z,62.42
2018-10-12T12:53:55.869Z,60.64
2018-10-12T12:54:55.748Z,60.44
2018-10-12T12:55:55.632Z,59.41
2018-10-12T12:56:55.567Z,59.14
2018-10-12T12:57:55.502Z,59.20
2018-10-12T12:58:55.436Z,58.32
2018-10-12T12:59:55.370Z,58.32
2018-10-12T13:00:55.304Z,57.25
2018-10-12T13:01:55.240Z,56.99
2018-10-12T13:02:55.179Z,56.99
2018-10-12T13:03:55.109Z,57.53
2018-10-12T13:04:55.093Z,55.61
2018-10-12T13:05:54.980Z,53.95
2018-10-12T13:06:54.915Z,52.97
2018-10-12T13:07:54.851Z,53.17
2018-10-12T13:08:54.786Z,52.87
2018-10-12T13:09:54.724Z,52.75
2018-10-12T13:10:54.660Z,55.38
2018-10-12T13:11:54.595Z,54.38
2018-10-12T13:12:54.532Z,55.62
2018-10-12T13:13:54.469Z,56.18
2018-10-12T13:14:54.406Z,56.35
2018-10-12T13:15:54.341Z,56.22